Time,TemperatureF,DewpointF,PressureIn,WindDirection,WindDirectionDegrees,WindSpeedMPH,WindSpeedGustMPH,Humidity,HourlyPrecipIn,Conditions,Clouds,dailyrainin,SoftwareType,DateUTC
2013-04-10 00:03:00,60.0,41.0,29.93,East,90,2.0,4.0,50,0.00,,,-99.99,,2013-04-10 04:03:00,
2013-04-10 00:13:00,60.0,41.0,29.93,East,90,2.0,4.0,50,0.00,,,-99.99,,2013-04-10 04:13:00,
2013-04-10 00:23:00,55.0,45.0,29.94,ESE,108,3.0,8.0,70,0.00,,,-99.99,,2013-04-10 04:23:00,
2013-04-10 00:33:00,55.0,45.0,29.94,ESE,108,3.0,8.0,70,0.00,,,-99.99,,2013-04-10 04:33:00,
2013-04-10 00:43:00,55.0,45.0,29.94,ESE,108,3.0,8.0,70,0.00,,,-99.99,,2013-04-10 04:43:00,
2013-04-10 00:53:00,52.0,46.0,29.94,SSW,200,3.0,6.0,80,0.00,,,-99.99,,2013-04-10 04:53:00,
2013-04-10 01:02:00,51.0,46.0,29.92,ESE,108,5.0,9.0,82,0.00,,,-99.99,,2013-04-10 05:02:00,
2013-04-10 01:13:00,51.0,46.0,29.92,ESE,104,4.0,10.0,82,0.00,,,-99.99,,2013-04-10 05:13:00,
2013-04-10 01:23:00,51.0,46.0,29.92,ESE,104,4.0,10.0,82,0.00,,,-99.99,,2013-04-10 05:23:00,
2013-04-10 01:33:00,51.0,46.0,29.92,ESE,104,4.0,10.0,82,0.00,,,-99.99,,2013-04-10 05:33:00,
2013-04-10 01:42:00,51.0,46.0,29.92,ESE,104,4.0,10.0,82,0.00,,,-99.99,,2013-04-10 05:42:00,
2013-04-10 01:53:00,50.0,45.0,29.91,South,171,5.0,12.0,82,0.00,,,-99.99,,2013-04-10 05:53:00,
2013-04-10 02:03:00,50.0,45.0,29.90,ESE,117,6.0,11.0,83,0.00,,,-99.99,,2013-04-10 06:03:00,
2013-04-10 02:12:00,50.0,45.0,29.90,SSE,160,4.0,9.0,83,0.00,,,-99.99,,2013-04-10 06:12:00,
2013-04-10 02:22:00,50.0,45.0,29.90,SSE,160,4.0,9.0,83,0.00,,,-99.99,,2013-04-10 06:22:00,
2013-04-10 02:32:00,50.0,45.0,29.87,SE,124,3.0,6.0,83,0.00,,,-99.99,,2013-04-10 06:32:00,
2013-04-10 02:42:00,50.0,45.0,29.87,SE,124,3.0,6.0,83,0.00,,,-99.99,,2013-04-10 06:42:00,
2013-04-10 02:52:00,50.0,45.0,29.86,ESE,119,3.0,6.0,83,0.00,,,-99.99,,2013-04-10 06:52:00,
2013-04-10 03:02:00,50.0,45.0,29.86,ESE,103,3.0,5.0,83,0.00,,,-99.99,,2013-04-10 07:02:00,
2013-04-10 03:12:00,50.0,45.0,29.86,ESE,103,3.0,5.0,83,0.00,,,-99.99,,2013-04-10 07:12:00,
2013-04-10 03:22:00,50.0,45.0,29.86,ESE,103,3.0,5.0,83,0.00,,,-99.99,,2013-04-10 07:22:00,
2013-04-10 03:32:00,50.0,45.0,29.91,NNE,16,4.0,11.0,83,0.00,,,-99.99,,2013-04-10 07:32:00,
2013-04-10 03:42:00,50.0,45.0,29.91,NNE,16,4.0,11.0,83,0.00,,,-99.99,,2013-04-10 07:42:00,
2013-04-10 03:52:00,50.0,46.0,29.96,NNE,20,5.0,13.0,86,0.00,,,-99.99,,2013-04-10 07:52:00,
2013-04-10 04:02:00,50.0,46.0,29.96,NNE,20,5.0,13.0,86,0.00,,,-99.99,,2013-04-10 08:02:00,
2013-04-10 04:12:00,50.0,46.0,29.96,NNE,20,5.0,13.0,86,0.00,,,-99.99,,2013-04-10 08:12:00,
2013-04-10 04:22:00,48.0,46.0,29.90,East,99,3.0,5.0,94,0.09,,,-99.99,,2013-04-10 08:22:00,
2013-04-10 04:32:00,48.0,47.0,29.87,ENE,75,3.0,5.0,95,0.09,,,-99.99,,2013-04-10 08:32:00,
2013-04-10 04:43:00,48.0,47.0,29.87,ENE,75,3.0,5.0,95,0.09,,,-99.99,,2013-04-10 08:43:00,
2013-04-10 04:52:00,48.0,47.0,29.86,ENE,72,2.0,4.0,95,0.09,,,-99.99,,2013-04-10 08:52:00,
2013-04-10 05:02:00,48.0,47.0,29.85,East,83,1.0,3.0,95,0.06,,,-99.99,,2013-04-10 09:02:00,
2013-04-10 05:12:00,48.0,47.0,29.85,East,83,1.0,3.0,95,0.06,,,-99.99,,2013-04-10 09:12:00,
2013-04-10 05:22:00,48.0,47.0,29.85,East,83,1.0,3.0,95,0.06,,,-99.99,,2013-04-10 09:22:00,
2013-04-10 05:23:00,48.0,47.0,29.85,ESE,110,0.0,1.0,95,0.00,,,-99.99,,2013-04-10 09:23:00,
2013-04-10 05:32:00,48.0,47.0,29.85,East,83,1.0,3.0,95,0.06,,,-99.99,,2013-04-10 09:32:00,
2013-04-10 05:43:00,48.0,47.0,29.85,ESE,110,0.0,1.0,95,0.00,,,-99.99,,2013-04-10 09:43:00,
2013-04-10 05:53:00,48.0,47.0,29.85,ESE,110,0.0,1.0,95,0.00,,,-99.99,,2013-04-10 09:53:00,
2013-04-10 06:03:00,48.0,47.0,29.85,ESE,110,0.0,1.0,95,0.00,,,-99.99,,2013-04-10 10:03:00,
2013-04-10 06:13:00,48.0,47.0,29.85,ESE,110,0.0,1.0,95,0.00,,,-99.99,,2013-04-10 10:13:00,
2013-04-10 06:33:00,48.0,47.0,29.89,ESE,110,0.0,1.0,95,0.00,,,-99.99,,2013-04-10 10:33:00,
2013-04-10 06:43:00,48.0,47.0,29.89,ESE,110,0.0,1.0,95,0.00,,,-99.99,,2013-04-10 10:43:00,
2013-04-10 06:53:00,48.0,47.0,29.89,ESE,110,0.0,1.0,95,0.00,,,-99.99,,2013-04-10 10:53:00,
2013-04-10 07:02:00,48.0,47.0,29.89,ESE,110,0.0,1.0,95,0.00,,,-99.99,,2013-04-10 11:02:00,
2013-04-10 07:12:00,48.0,47.0,29.89,ESE,110,0.0,1.0,95,0.00,,,-99.99,,2013-04-10 11:12:00,
2013-04-10 07:22:00,48.0,47.0,29.89,ESE,110,0.0,1.0,95,0.00,,,-99.99,,2013-04-10 11:22:00,
2013-04-10 07:32:00,48.0,47.0,29.89,ESE,110,0.0,1.0,95,0.00,,,-99.99,,2013-04-10 11:32:00,
2013-04-10 15:22:00,65.0,52.0,29.90,WNW,293,1.0,4.0,62,0.00,,,-99.99,,2013-04-10 19:22:00,
2013-04-10 15:33:00,65.0,52.0,29.90,WNW,293,1.0,4.0,62,0.00,,,-99.99,,2013-04-10 19:33:00,
2013-04-10 15:42:00,65.0,52.0,29.90,WNW,293,1.0,4.0,62,0.00,,,-99.99,,2013-04-10 19:42:00,
2013-04-10 15:53:00,65.0,52.0,29.89,NNE,15,1.0,3.0,63,0.00,,,-99.99,,2013-04-10 19:53:00,
2013-04-10 16:03:00,65.0,52.0,29.89,NNE,15,1.0,3.0,63,0.00,,,-99.99,,2013-04-10 20:03:00,
2013-04-10 16:12:00,65.0,52.0,29.89,NNE,15,1.0,3.0,63,0.00,,,-99.99,,2013-04-10 20:12:00,
2013-04-10 16:23:00,65.0,52.0,29.89,NNE,15,1.0,3.0,63,0.00,,,-99.99,,2013-04-10 20:23:00,
2013-04-10 16:33:00,67.0,53.0,29.86,SE,145,1.0,3.0,61,0.00,,,-99.99,,2013-04-10 20:33:00,
2013-04-10 16:43:00,67.0,53.0,29.86,WSW,246,0.0,2.0,60,0.00,,,-99.99,,2013-04-10 20:43:00,
2013-04-10 16:53:00,67.0,53.0,29.86,WSW,246,0.0,2.0,60,0.00,,,-99.99,,2013-04-10 20:53:00,
2013-04-10 17:03:00,68.0,53.0,29.85,South,188,2.0,5.0,58,0.00,,,-99.99,,2013-04-10 21:03:00,
2013-04-10 17:13:00,68.0,53.0,29.85,SW,224,3.0,9.0,58,0.00,,,-99.99,,2013-04-10 21:13:00,
2013-04-10 17:22:00,68.0,53.0,29.85,SW,224,3.0,9.0,58,0.00,,,-99.99,,2013-04-10 21:22:00,
2013-04-10 17:33:00,64.0,52.0,29.85,East,99,3.0,8.0,65,0.00,,,-99.99,,2013-04-10 21:33:00,
2013-04-10 17:43:00,64.0,52.0,29.85,East,99,3.0,8.0,65,0.00,,,-99.99,,2013-04-10 21:43:00,
2013-04-10 17:53:00,63.0,52.0,29.85,ESE,108,4.0,8.0,67,0.00,,,-99.99,,2013-04-10 21:53:00,
2013-04-10 18:03:00,62.0,51.0,29.85,SE,145,4.0,8.0,68,0.00,,,-99.99,,2013-04-10 22:03:00,
2013-04-10 18:13:00,59.0,50.0,29.85,ESE,112,3.0,8.0,72,0.00,,,-99.99,,2013-04-10 22:13:00,
2013-04-10 18:23:00,59.0,50.0,29.85,ESE,112,3.0,8.0,72,0.00,,,-99.99,,2013-04-10 22:23:00,
2013-04-10 18:33:00,58.0,49.0,29.84,SE,129,4.0,9.0,73,0.00,,,-99.99,,2013-04-10 22:33:00,
2013-04-10 18:43:00,58.0,49.0,29.84,SE,129,4.0,9.0,73,0.00,,,-99.99,,2013-04-10 22:43:00,
2013-04-10 18:53:00,56.0,49.0,29.86,ESE,106,2.0,5.0,77,0.00,,,-99.99,,2013-04-10 22:53:00,
2013-04-10 19:03:00,54.0,47.0,29.86,ESE,104,4.0,9.0,78,0.00,,,-99.99,,2013-04-10 23:03:00,
2013-04-10 19:12:00,53.0,47.0,29.85,ESE,113,4.0,9.0,80,0.00,,,-99.99,,2013-04-10 23:12:00,
2013-04-10 19:22:00,53.0,47.0,29.85,ESE,113,4.0,9.0,80,0.00,,,-99.99,,2013-04-10 23:22:00,
2013-04-10 19:33:00,52.0,46.0,29.83,SE,144,3.0,9.0,81,0.00,,,-99.99,,2013-04-10 23:33:00,
2013-04-10 19:42:00,52.0,46.0,29.83,SE,144,3.0,9.0,81,0.00,,,-99.99,,2013-04-10 23:42:00,
2013-04-10 19:53:00,52.0,47.0,29.84,SSE,159,4.0,10.0,83,0.00,,,-99.99,,2013-04-10 23:53:00,
2013-04-10 20:02:00,51.0,46.0,29.85,SSW,210,4.0,9.0,84,0.00,,,-99.99,,2013-04-11 00:02:00,
2013-04-10 20:13:00,51.0,46.0,29.88,WNW,293,2.0,10.0,84,0.00,,,-99.99,,2013-04-11 00:13:00,
2013-04-10 20:22:00,51.0,46.0,29.88,WNW,293,2.0,10.0,84,0.00,,,-99.99,,2013-04-11 00:22:00,
2013-04-10 20:32:00,51.0,48.0,29.92,SE,129,1.0,4.0,90,0.04,,,-99.99,,2013-04-11 00:32:00,
2013-04-10 20:42:00,50.0,48.0,29.88,SE,129,2.0,4.0,93,0.07,,,-99.99,,2013-04-11 00:42:00,
2013-04-10 20:52:00,50.0,48.0,29.88,SE,129,2.0,4.0,93,0.07,,,-99.99,,2013-04-11 00:52:00,
2013-04-10 21:02:00,50.0,48.0,29.88,SE,129,2.0,4.0,93,0.07,,,-99.99,,2013-04-11 01:02:00,
2013-04-10 21:12:00,50.0,48.0,29.88,SE,129,2.0,4.0,93,0.07,,,-99.99,,2013-04-11 01:12:00,
2013-04-10 21:22:00,50.0,48.0,29.88,SE,129,2.0,4.0,93,0.07,,,-99.99,,2013-04-11 01:22:00,
2013-04-10 21:32:00,48.0,47.0,29.85,ESE,103,1.0,3.0,96,0.04,,,-99.99,,2013-04-11 01:32:00,
2013-04-10 21:42:00,48.0,47.0,29.85,ESE,103,1.0,3.0,96,0.04,,,-99.99,,2013-04-11 01:42:00,
2013-04-10 21:52:00,48.0,47.0,29.85,ESE,103,1.0,3.0,96,0.04,,,-99.99,,2013-04-11 01:52:00,
2013-04-10 22:03:00,48.0,47.0,29.83,ESE,115,2.0,6.0,97,0.00,,,-99.99,,2013-04-11 02:03:00,
2013-04-10 22:12:00,47.0,46.0,29.83,ESE,121,2.0,4.0,97,0.00,,,-99.99,,2013-04-11 02:12:00,
2013-04-10 22:22:00,47.0,46.0,29.83,ESE,121,2.0,4.0,97,0.00,,,-99.99,,2013-04-11 02:22:00,
2013-04-10 22:32:00,47.0,46.0,29.84,East,101,1.0,3.0,97,0.00,,,-99.99,,2013-04-11 02:32:00,
2013-04-10 22:42:00,47.0,46.0,29.84,East,101,1.0,3.0,97,0.00,,,-99.99,,2013-04-11 02:42:00,
2013-04-10 22:52:00,47.0,46.0,29.84,East,101,1.0,3.0,97,0.00,,,-99.99,,2013-04-11 02:52:00,
2013-04-10 23:02:00,47.0,46.0,29.87,SE,145,0.0,2.0,98,0.04,,,-99.99,,2013-04-11 03:02:00,
2013-04-10 23:12:00,47.0,46.0,29.86,SSE,160,0.0,0.0,98,0.04,,,-99.99,,2013-04-11 03:12:00,
2013-04-10 23:22:00,47.0,46.0,29.86,SSE,160,0.0,0.0,98,0.04,,,-99.99,,2013-04-11 03:22:00,
2013-04-10 23:33:00,47.0,46.0,29.86,SSE,160,0.0,0.0,98,0.04,,,-99.99,,2013-04-11 03:33:00,
2013-04-10 23:43:00,47.0,46.0,29.86,SSE,160,0.0,0.0,98,0.04,,,-99.99,,2013-04-11 03:43:00,
2013-04-10 23:54:00,47.0,46.0,29.86,SSE,160,0.0,0.0,98,0.04,,,-99.99,,2013-04-11 03:54:00,